sensor_id;sensor_type;location;lat;lon;timestamp;P1;durP1;ratioP1;P2;durP2;ratioP2
11539;SDS011;5826;54.756;9.192;2022-11-25T00:01:46;13.73;;;10.37;;
11539;SDS011;5826;54.756;9.192;2022-11-25T00:04:12;15.13;;;11.00;;
11539;SDS011;5826;54.756;9.192;2022-11-25T00:06:38;13.20;;;10.07;;
11539;SDS011;5826;54.756;9.192;2022-11-25T00:09:05;27.07;;;16.20;;
11539;SDS011;5826;54.756;9.192;2022-11-25T00:11:36;32.83;;;19.63;;
11539;SDS011;5826;54.756;9.192;2022-11-25T00:14:03;44.73;;;26.70;;
11539;SDS011;5826;54.756;9.192;2022-11-25T00:16:29;40.10;;;24.73;;
11539;SDS011;5826;54.756;9.192;2022-11-25T00:18:55;43.60;;;26.50;;
11539;SDS011;5826;54.756;9.192;2022-11-25T00:21:23;42.80;;;27.07;;
11539;SDS011;5826;54.756;9.192;2022-11-25T00:23:51;41.23;;;26.47;;
11539;SDS011;5826;54.756;9.192;2022-11-25T00:26:21;33.10;;;23.03;;
11539;SDS011;5826;54.756;9.192;2022-11-25T00:28:48;28.13;;;19.13;;
11539;SDS011;5826;54.756;9.192;2022-11-25T00:31:17;24.43;;;16.97;;
11539;SDS011;5826;54.756;9.192;2022-11-25T00:33:44;18.90;;;14.57;;
11539;SDS011;5826;54.756;9.192;2022-11-25T00:36:16;18.07;;;13.53;;
11539;SDS011;5826;54.756;9.192;2022-11-25T00:38:51;17.03;;;12.30;;
11539;SDS011;5826;54.756;9.192;2022-11-25T00:41:19;17.87;;;11.73;;
11539;SDS011;5826;54.756;9.192;2022-11-25T00:44:03;17.23;;;12.80;;
11539;SDS011;5826;54.756;9.192;2022-11-25T00:46:47;14.50;;;11.23;;
11539;SDS011;5826;54.756;9.192;2022-11-25T00:49:13;13.50;;;11.10;;
11539;SDS011;5826;54.756;9.192;2022-11-25T00:51:38;15.03;;;10.83;;
11539;SDS011;5826;54.756;9.192;2022-11-25T00:54:04;17.30;;;11.43;;
11539;SDS011;5826;54.756;9.192;2022-11-25T00:56:30;13.70;;;10.87;;
11539;SDS011;5826;54.756;9.192;2022-11-25T00:58:55;16.53;;;11.37;;
11539;SDS011;5826;54.756;9.192;2022-11-25T01:01:21;15.17;;;11.57;;
11539;SDS011;5826;54.756;9.192;2022-11-25T01:03:47;17.83;;;11.90;;
11539;SDS011;5826;54.756;9.192;2022-11-25T01:06:14;14.10;;;11.07;;
11539;SDS011;5826;54.756;9.192;2022-11-25T01:08:39;16.07;;;10.87;;
11539;SDS011;5826;54.756;9.192;2022-11-25T01:11:06;16.27;;;11.53;;
11539;SDS011;5826;54.756;9.192;2022-11-25T01:13:34;18.40;;;12.07;;
11539;SDS011;5826;54.756;9.192;2022-11-25T01:16:00;16.20;;;11.63;;
11539;SDS011;5826;54.756;9.192;2022-11-25T01:18:27;15.27;;;10.80;;
11539;SDS011;5826;54.756;9.192;2022-11-25T01:20:53;14.00;;;10.60;;
11539;SDS011;5826;54.756;9.192;2022-11-25T01:23:19;16.17;;;11.50;;
11539;SDS011;5826;54.756;9.192;2022-11-25T01:25:44;18.20;;;11.47;;
11539;SDS011;5826;54.756;9.192;2022-11-25T01:28:10;16.13;;;11.00;;
11539;SDS011;5826;54.756;9.192;2022-11-25T01:30:37;16.77;;;11.23;;
11539;SDS011;5826;54.756;9.192;2022-11-25T01:33:03;14.27;;;10.80;;
11539;SDS011;5826;54.756;9.192;2022-11-25T01:35:29;15.23;;;10.50;;
11539;SDS011;5826;54.756;9.192;2022-11-25T01:37:54;14.03;;;10.53;;
11539;SDS011;5826;54.756;9.192;2022-11-25T01:40:20;15.57;;;10.73;;
11539;SDS011;5826;54.756;9.192;2022-11-25T01:42:45;14.77;;;10.50;;
11539;SDS011;5826;54.756;9.192;2022-11-25T01:47:47;16.67;;;10.23;;
11539;SDS011;5826;54.756;9.192;2022-11-25T01:50:19;14.10;;;10.67;;
11539;SDS011;5826;54.756;9.192;2022-11-25T01:52:49;16.80;;;11.13;;
11539;SDS011;5826;54.756;9.192;2022-11-25T01:55:16;16.40;;;10.50;;
11539;SDS011;5826;54.756;9.192;2022-11-25T01:57:46;13.87;;;10.50;;
11539;SDS011;5826;54.756;9.192;2022-11-25T02:00:18;15.70;;;10.33;;
11539;SDS011;5826;54.756;9.192;2022-11-25T02:02:45;15.03;;;10.90;;
11539;SDS011;5826;54.756;9.192;2022-11-25T02:05:11;14.17;;;10.57;;
11539;SDS011;5826;54.756;9.192;2022-11-25T02:07:41;13.97;;;10.87;;
11539;SDS011;5826;54.756;9.192;2022-11-25T02:10:10;16.07;;;10.83;;
11539;SDS011;5826;54.756;9.192;2022-11-25T02:12:39;15.93;;;10.67;;
11539;SDS011;5826;54.756;9.192;2022-11-25T02:15:07;13.07;;;10.33;;
11539;SDS011;5826;54.756;9.192;2022-11-25T02:17:33;13.13;;;9.60;;
11539;SDS011;5826;54.756;9.192;2022-11-25T02:20:08;15.17;;;10.80;;
11539;SDS011;5826;54.756;9.192;2022-11-25T02:25:38;14.63;;;10.70;;
11539;SDS011;5826;54.756;9.192;2022-11-25T02:28:06;14.70;;;10.23;;
11539;SDS011;5826;54.756;9.192;2022-11-25T02:30:40;13.80;;;10.07;;
11539;SDS011;5826;54.756;9.192;2022-11-25T02:33:06;16.50;;;11.00;;
11539;SDS011;5826;54.756;9.192;2022-11-25T02:35:37;13.40;;;9.87;;
11539;SDS011;5826;54.756;9.192;2022-11-25T02:38:07;14.97;;;10.40;;
11539;SDS011;5826;54.756;9.192;2022-11-25T02:40:34;16.13;;;10.53;;
11539;SDS011;5826;54.756;9.192;2022-11-25T02:43:05;14.87;;;11.00;;
11539;SDS011;5826;54.756;9.192;2022-11-25T02:45:34;16.23;;;10.03;;
11539;SDS011;5826;54.756;9.192;2022-11-25T02:48:21;13.43;;;9.40;;
11539;SDS011;5826;54.756;9.192;2022-11-25T02:50:48;14.63;;;10.07;;
11539;SDS011;5826;54.756;9.192;2022-11-25T02:53:13;16.37;;;10.50;;
11539;SDS011;5826;54.756;9.192;2022-11-25T02:55:40;12.63;;;9.80;;
11539;SDS011;5826;54.756;9.192;2022-11-25T02:58:05;13.73;;;9.90;;
11539;SDS011;5826;54.756;9.192;2022-11-25T03:00:31;13.00;;;9.70;;
11539;SDS011;5826;54.756;9.192;2022-11-25T03:02:57;13.13;;;10.10;;
11539;SDS011;5826;54.756;9.192;2022-11-25T03:05:23;15.70;;;10.90;;
11539;SDS011;5826;54.756;9.192;2022-11-25T03:07:49;13.93;;;9.67;;
11539;SDS011;5826;54.756;9.192;2022-11-25T03:10:14;15.50;;;10.27;;
11539;SDS011;5826;54.756;9.192;2022-11-25T03:12:40;15.73;;;11.00;;
11539;SDS011;5826;54.756;9.192;2022-11-25T03:15:06;14.30;;;10.80;;
11539;SDS011;5826;54.756;9.192;2022-11-25T03:17:32;14.17;;;10.50;;
11539;SDS011;5826;54.756;9.192;2022-11-25T03:19:57;12.87;;;10.67;;
11539;SDS011;5826;54.756;9.192;2022-11-25T03:22:23;13.80;;;10.37;;
11539;SDS011;5826;54.756;9.192;2022-11-25T03:24:48;15.60;;;11.43;;
11539;SDS011;5826;54.756;9.192;2022-11-25T03:27:14;15.87;;;11.07;;
11539;SDS011;5826;54.756;9.192;2022-11-25T03:29:39;14.20;;;11.03;;
11539;SDS011;5826;54.756;9.192;2022-11-25T03:32:05;14.73;;;10.90;;
11539;SDS011;5826;54.756;9.192;2022-11-25T03:34:31;16.47;;;11.00;;
11539;SDS011;5826;54.756;9.192;2022-11-25T03:36:56;17.83;;;12.13;;
11539;SDS011;5826;54.756;9.192;2022-11-25T03:39:22;15.83;;;11.53;;
11539;SDS011;5826;54.756;9.192;2022-11-25T03:41:47;14.33;;;11.10;;
11539;SDS011;5826;54.756;9.192;2022-11-25T03:44:13;14.50;;;10.90;;
11539;SDS011;5826;54.756;9.192;2022-11-25T03:46:39;17.00;;;11.83;;
11539;SDS011;5826;54.756;9.192;2022-11-25T03:49:04;15.40;;;11.93;;
11539;SDS011;5826;54.756;9.192;2022-11-25T03:51:30;14.87;;;11.50;;
11539;SDS011;5826;54.756;9.192;2022-11-25T03:53:55;14.30;;;11.07;;
11539;SDS011;5826;54.756;9.192;2022-11-25T03:56:21;15.63;;;11.17;;
11539;SDS011;5826;54.756;9.192;2022-11-25T03:58:46;14.30;;;11.30;;
11539;SDS011;5826;54.756;9.192;2022-11-25T04:01:12;15.07;;;11.60;;
11539;SDS011;5826;54.756;9.192;2022-11-25T04:03:37;15.23;;;10.60;;
11539;SDS011;5826;54.756;9.192;2022-11-25T04:06:03;15.27;;;11.17;;
11539;SDS011;5826;54.756;9.192;2022-11-25T04:08:28;16.67;;;11.57;;
11539;SDS011;5826;54.756;9.192;2022-11-25T04:10:54;13.60;;;11.00;;
11539;SDS011;5826;54.756;9.192;2022-11-25T04:13:19;15.63;;;11.40;;
11539;SDS011;5826;54.756;9.192;2022-11-25T04:15:46;14.57;;;11.03;;
11539;SDS011;5826;54.756;9.192;2022-11-25T04:18:13;16.07;;;11.60;;
11539;SDS011;5826;54.756;9.192;2022-11-25T04:20:39;14.47;;;11.77;;
11539;SDS011;5826;54.756;9.192;2022-11-25T04:23:04;15.83;;;11.57;;
11539;SDS011;5826;54.756;9.192;2022-11-25T04:25:30;15.10;;;11.20;;
11539;SDS011;5826;54.756;9.192;2022-11-25T04:27:56;14.77;;;11.30;;
11539;SDS011;5826;54.756;9.192;2022-11-25T04:30:22;16.83;;;11.90;;
11539;SDS011;5826;54.756;9.192;2022-11-25T04:32:48;15.00;;;11.17;;
11539;SDS011;5826;54.756;9.192;2022-11-25T04:35:13;15.93;;;11.77;;
11539;SDS011;5826;54.756;9.192;2022-11-25T04:37:39;15.27;;;11.03;;
11539;SDS011;5826;54.756;9.192;2022-11-25T04:40:04;14.67;;;10.80;;
11539;SDS011;5826;54.756;9.192;2022-11-25T04:42:30;16.40;;;11.43;;
11539;SDS011;5826;54.756;9.192;2022-11-25T04:44:56;14.67;;;10.60;;
11539;SDS011;5826;54.756;9.192;2022-11-25T04:47:22;15.40;;;11.27;;
11539;SDS011;5826;54.756;9.192;2022-11-25T04:49:48;14.23;;;11.23;;
11539;SDS011;5826;54.756;9.192;2022-11-25T04:52:13;14.77;;;10.63;;
11539;SDS011;5826;54.756;9.192;2022-11-25T04:54:38;13.77;;;10.13;;
11539;SDS011;5826;54.756;9.192;2022-11-25T04:57:04;15.03;;;11.40;;
11539;SDS011;5826;54.756;9.192;2022-11-25T04:59:30;12.53;;;9.97;;
11539;SDS011;5826;54.756;9.192;2022-11-25T05:02:05;14.53;;;9.90;;
11539;SDS011;5826;54.756;9.192;2022-11-25T05:04:51;13.97;;;10.03;;
11539;SDS011;5826;54.756;9.192;2022-11-25T05:07:18;15.57;;;10.60;;
11539;SDS011;5826;54.756;9.192;2022-11-25T05:09:46;14.17;;;10.10;;
11539;SDS011;5826;54.756;9.192;2022-11-25T05:12:12;14.20;;;11.27;;
11539;SDS011;5826;54.756;9.192;2022-11-25T05:14:43;14.50;;;11.20;;
11539;SDS011;5826;54.756;9.192;2022-11-25T05:17:11;14.50;;;11.00;;
11539;SDS011;5826;54.756;9.192;2022-11-25T05:19:38;14.03;;;10.63;;
11539;SDS011;5826;54.756;9.192;2022-11-25T05:22:04;13.00;;;9.83;;
11539;SDS011;5826;54.756;9.192;2022-11-25T05:24:29;18.37;;;10.80;;
11539;SDS011;5826;54.756;9.192;2022-11-25T05:26:55;15.27;;;10.77;;
11539;SDS011;5826;54.756;9.192;2022-11-25T05:29:21;12.07;;;9.37;;
11539;SDS011;5826;54.756;9.192;2022-11-25T05:31:47;13.37;;;9.67;;
11539;SDS011;5826;54.756;9.192;2022-11-25T05:34:13;14.33;;;10.73;;
11539;SDS011;5826;54.756;9.192;2022-11-25T05:36:38;15.67;;;10.37;;
11539;SDS011;5826;54.756;9.192;2022-11-25T05:39:04;13.70;;;10.40;;
11539;SDS011;5826;54.756;9.192;2022-11-25T05:41:29;12.80;;;9.50;;
11539;SDS011;5826;54.756;9.192;2022-11-25T05:43:55;12.93;;;9.60;;
11539;SDS011;5826;54.756;9.192;2022-11-25T05:46:21;11.07;;;8.43;;
11539;SDS011;5826;54.756;9.192;2022-11-25T05:48:46;13.27;;;9.53;;
11539;SDS011;5826;54.756;9.192;2022-11-25T05:51:12;14.27;;;9.77;;
11539;SDS011;5826;54.756;9.192;2022-11-25T05:53:37;13.90;;;9.40;;
11539;SDS011;5826;54.756;9.192;2022-11-25T05:56:04;12.57;;;9.10;;
11539;SDS011;5826;54.756;9.192;2022-11-25T05:58:31;11.03;;;8.13;;
11539;SDS011;5826;54.756;9.192;2022-11-25T06:00:57;13.20;;;9.20;;
11539;SDS011;5826;54.756;9.192;2022-11-25T06:03:23;14.50;;;9.57;;
11539;SDS011;5826;54.756;9.192;2022-11-25T06:05:50;13.70;;;9.80;;
11539;SDS011;5826;54.756;9.192;2022-11-25T06:08:15;12.63;;;10.07;;
11539;SDS011;5826;54.756;9.192;2022-11-25T06:10:41;13.27;;;9.90;;
11539;SDS011;5826;54.756;9.192;2022-11-25T06:13:07;13.63;;;9.57;;
11539;SDS011;5826;54.756;9.192;2022-11-25T06:15:33;14.33;;;9.83;;
11539;SDS011;5826;54.756;9.192;2022-11-25T06:18:03;13.33;;;9.83;;
11539;SDS011;5826;54.756;9.192;2022-11-25T06:20:29;11.97;;;8.73;;
11539;SDS011;5826;54.756;9.192;2022-11-25T06:22:56;12.77;;;9.37;;
11539;SDS011;5826;54.756;9.192;2022-11-25T06:25:22;13.43;;;9.10;;
11539;SDS011;5826;54.756;9.192;2022-11-25T06:27:48;13.13;;;9.27;;
11539;SDS011;5826;54.756;9.192;2022-11-25T06:30:14;14.10;;;9.83;;
11539;SDS011;5826;54.756;9.192;2022-11-25T06:32:40;12.87;;;8.67;;
11539;SDS011;5826;54.756;9.192;2022-11-25T06:35:05;10.30;;;8.40;;
11539;SDS011;5826;54.756;9.192;2022-11-25T06:37:31;11.97;;;8.97;;
11539;SDS011;5826;54.756;9.192;2022-11-25T06:39:57;11.20;;;8.77;;
11539;SDS011;5826;54.756;9.192;2022-11-25T06:42:23;13.80;;;9.00;;
11539;SDS011;5826;54.756;9.192;2022-11-25T06:44:48;11.90;;;9.03;;
11539;SDS011;5826;54.756;9.192;2022-11-25T06:47:14;14.33;;;8.87;;
11539;SDS011;5826;54.756;9.192;2022-11-25T06:49:40;13.23;;;9.43;;
11539;SDS011;5826;54.756;9.192;2022-11-25T06:52:05;10.93;;;8.33;;
11539;SDS011;5826;54.756;9.192;2022-11-25T06:54:31;11.60;;;8.37;;
11539;SDS011;5826;54.756;9.192;2022-11-25T06:56:57;11.80;;;8.13;;
11539;SDS011;5826;54.756;9.192;2022-11-25T06:59:23;11.03;;;8.33;;
11539;SDS011;5826;54.756;9.192;2022-11-25T07:01:48;10.67;;;7.80;;
11539;SDS011;5826;54.756;9.192;2022-11-25T07:04:14;11.10;;;7.30;;
11539;SDS011;5826;54.756;9.192;2022-11-25T07:06:40;9.73;;;7.40;;
11539;SDS011;5826;54.756;9.192;2022-11-25T07:09:05;10.00;;;7.77;;
11539;SDS011;5826;54.756;9.192;2022-11-25T07:11:32;9.50;;;6.97;;
11539;SDS011;5826;54.756;9.192;2022-11-25T07:14:00;11.23;;;7.23;;
11539;SDS011;5826;54.756;9.192;2022-11-25T07:16:27;12.57;;;7.67;;
11539;SDS011;5826;54.756;9.192;2022-11-25T07:18:53;9.87;;;6.70;;
11539;SDS011;5826;54.756;9.192;2022-11-25T07:21:20;8.77;;;6.73;;
11539;SDS011;5826;54.756;9.192;2022-11-25T07:23:48;10.47;;;7.20;;
11539;SDS011;5826;54.756;9.192;2022-11-25T07:26:16;9.83;;;6.53;;
11539;SDS011;5826;54.756;9.192;2022-11-25T07:28:45;9.37;;;6.60;;
11539;SDS011;5826;54.756;9.192;2022-11-25T07:31:19;8.60;;;6.27;;
11539;SDS011;5826;54.756;9.192;2022-11-25T07:33:46;10.37;;;6.53;;
11539;SDS011;5826;54.756;9.192;2022-11-25T07:36:15;10.77;;;6.50;;
11539;SDS011;5826;54.756;9.192;2022-11-25T07:38:41;7.83;;;6.37;;
11539;SDS011;5826;54.756;9.192;2022-11-25T07:41:07;8.87;;;6.53;;
11539;SDS011;5826;54.756;9.192;2022-11-25T07:43:44;8.13;;;6.13;;
11539;SDS011;5826;54.756;9.192;2022-11-25T07:46:32;7.83;;;6.00;;
11539;SDS011;5826;54.756;9.192;2022-11-25T07:49:01;8.90;;;6.70;;
11539;SDS011;5826;54.756;9.192;2022-11-25T07:51:33;8.03;;;5.87;;
11539;SDS011;5826;54.756;9.192;2022-11-25T07:54:01;7.57;;;5.77;;
11539;SDS011;5826;54.756;9.192;2022-11-25T07:56:28;8.33;;;5.80;;
11539;SDS011;5826;54.756;9.192;2022-11-25T07:58:54;7.00;;;4.93;;
11539;SDS011;5826;54.756;9.192;2022-11-25T08:01:20;7.90;;;5.43;;
11539;SDS011;5826;54.756;9.192;2022-11-25T08:03:47;6.03;;;4.80;;
11539;SDS011;5826;54.756;9.192;2022-11-25T08:06:17;7.83;;;5.43;;
11539;SDS011;5826;54.756;9.192;2022-11-25T08:08:51;9.17;;;5.30;;
11539;SDS011;5826;54.756;9.192;2022-11-25T08:11:20;7.93;;;5.50;;
11539;SDS011;5826;54.756;9.192;2022-11-25T08:13:47;7.00;;;4.90;;
11539;SDS011;5826;54.756;9.192;2022-11-25T08:16:14;6.53;;;4.63;;
11539;SDS011;5826;54.756;9.192;2022-11-25T08:18:41;7.70;;;5.10;;
11539;SDS011;5826;54.756;9.192;2022-11-25T08:21:07;5.23;;;4.37;;
11539;SDS011;5826;54.756;9.192;2022-11-25T08:23:36;6.07;;;4.83;;
11539;SDS011;5826;54.756;9.192;2022-11-25T08:26:03;6.97;;;4.40;;
11539;SDS011;5826;54.756;9.192;2022-11-25T08:28:29;7.30;;;4.60;;
11539;SDS011;5826;54.756;9.192;2022-11-25T08:31:09;6.37;;;4.40;;
11539;SDS011;5826;54.756;9.192;2022-11-25T08:33:37;5.67;;;4.33;;
11539;SDS011;5826;54.756;9.192;2022-11-25T08:36:04;6.63;;;4.47;;
11539;SDS011;5826;54.756;9.192;2022-11-25T08:38:30;6.60;;;4.30;;
11539;SDS011;5826;54.756;9.192;2022-11-25T08:40:57;8.40;;;4.93;;
11539;SDS011;5826;54.756;9.192;2022-11-25T08:43:22;8.67;;;4.80;;
11539;SDS011;5826;54.756;9.192;2022-11-25T08:45:48;9.33;;;4.70;;
11539;SDS011;5826;54.756;9.192;2022-11-25T08:48:15;8.10;;;5.07;;
11539;SDS011;5826;54.756;9.192;2022-11-25T08:50:47;6.93;;;4.40;;
11539;SDS011;5826;54.756;9.192;2022-11-25T08:53:15;6.67;;;4.47;;
11539;SDS011;5826;54.756;9.192;2022-11-25T08:55:42;8.30;;;4.67;;
11539;SDS011;5826;54.756;9.192;2022-11-25T08:58:08;5.60;;;4.53;;
11539;SDS011;5826;54.756;9.192;2022-11-25T09:00:36;5.33;;;3.80;;
11539;SDS011;5826;54.756;9.192;2022-11-25T09:03:01;6.43;;;4.70;;
11539;SDS011;5826;54.756;9.192;2022-11-25T09:05:27;7.10;;;4.40;;
11539;SDS011;5826;54.756;9.192;2022-11-25T09:07:59;5.23;;;3.60;;
11539;SDS011;5826;54.756;9.192;2022-11-25T09:10:25;7.23;;;4.77;;
11539;SDS011;5826;54.756;9.192;2022-11-25T09:12:51;7.20;;;4.70;;
11539;SDS011;5826;54.756;9.192;2022-11-25T09:15:16;6.57;;;4.57;;
11539;SDS011;5826;54.756;9.192;2022-11-25T09:17:42;8.20;;;4.37;;
11539;SDS011;5826;54.756;9.192;2022-11-25T09:20:08;5.33;;;4.20;;
11539;SDS011;5826;54.756;9.192;2022-11-25T09:22:33;5.50;;;3.97;;
11539;SDS011;5826;54.756;9.192;2022-11-25T09:25:00;6.80;;;4.63;;
11539;SDS011;5826;54.756;9.192;2022-11-25T09:27:25;7.00;;;4.70;;
11539;SDS011;5826;54.756;9.192;2022-11-25T09:29:51;6.57;;;4.40;;
11539;SDS011;5826;54.756;9.192;2022-11-25T09:32:16;5.23;;;4.13;;
11539;SDS011;5826;54.756;9.192;2022-11-25T09:34:42;6.77;;;4.40;;
11539;SDS011;5826;54.756;9.192;2022-11-25T09:37:07;6.83;;;4.53;;
11539;SDS011;5826;54.756;9.192;2022-11-25T09:39:33;9.23;;;4.90;;
11539;SDS011;5826;54.756;9.192;2022-11-25T09:42:06;8.03;;;4.90;;
11539;SDS011;5826;54.756;9.192;2022-11-25T09:45:16;13.80;;;10.97;;
11539;SDS011;5826;54.756;9.192;2022-11-25T09:51:20;11.73;;;8.10;;
11539;SDS011;5826;54.756;9.192;2022-11-25T09:54:02;8.63;;;6.63;;
11539;SDS011;5826;54.756;9.192;2022-11-25T09:56:35;10.23;;;7.17;;
11539;SDS011;5826;54.756;9.192;2022-11-25T10:01:48;10.87;;;7.53;;
11539;SDS011;5826;54.756;9.192;2022-11-25T10:07:00;26.33;;;17.23;;
11539;SDS011;5826;54.756;9.192;2022-11-25T10:09:29;29.97;;;19.30;;
11539;SDS011;5826;54.756;9.192;2022-11-25T10:11:59;20.93;;;14.77;;
11539;SDS011;5826;54.756;9.192;2022-11-25T10:14:30;22.53;;;14.73;;
11539;SDS011;5826;54.756;9.192;2022-11-25T10:17:05;21.93;;;14.83;;
11539;SDS011;5826;54.756;9.192;2022-11-25T10:22:39;21.57;;;15.43;;
11539;SDS011;5826;54.756;9.192;2022-11-25T10:25:15;29.93;;;21.07;;
11539;SDS011;5826;54.756;9.192;2022-11-25T10:30:26;24.13;;;16.73;;
11539;SDS011;5826;54.756;9.192;2022-11-25T10:33:04;24.10;;;15.80;;
11539;SDS011;5826;54.756;9.192;2022-11-25T10:35:44;19.20;;;12.77;;
11539;SDS011;5826;54.756;9.192;2022-11-25T10:38:37;19.43;;;13.83;;
11539;SDS011;5826;54.756;9.192;2022-11-25T10:41:25;15.07;;;10.60;;
11539;SDS011;5826;54.756;9.192;2022-11-25T10:43:54;14.53;;;10.70;;
11539;SDS011;5826;54.756;9.192;2022-11-25T10:48:54;12.00;;;8.63;;
11539;SDS011;5826;54.756;9.192;2022-11-25T10:51:35;12.13;;;8.30;;
11539;SDS011;5826;54.756;9.192;2022-11-25T10:54:08;11.70;;;7.50;;
11539;SDS011;5826;54.756;9.192;2022-11-25T10:57:15;10.67;;;7.87;;
11539;SDS011;5826;54.756;9.192;2022-11-25T10:59:39;13.90;;;10.87;;
11539;SDS011;5826;54.756;9.192;2022-11-25T11:07:34;11.57;;;8.63;;
11539;SDS011;5826;54.756;9.192;2022-11-25T11:12:59;20.80;;;13.87;;
11539;SDS011;5826;54.756;9.192;2022-11-25T11:15:27;8.97;;;7.57;;
11539;SDS011;5826;54.756;9.192;2022-11-25T11:17:56;14.13;;;10.50;;
11539;SDS011;5826;54.756;9.192;2022-11-25T11:20:27;13.43;;;9.53;;
11539;SDS011;5826;54.756;9.192;2022-11-25T11:22:57;11.03;;;7.77;;
11539;SDS011;5826;54.756;9.192;2022-11-25T11:25:28;11.53;;;8.47;;
11539;SDS011;5826;54.756;9.192;2022-11-25T11:27:56;29.40;;;20.97;;
11539;SDS011;5826;54.756;9.192;2022-11-25T11:30:23;15.30;;;11.40;;
11539;SDS011;5826;54.756;9.192;2022-11-25T11:32:56;13.50;;;10.33;;
11539;SDS011;5826;54.756;9.192;2022-11-25T11:38:07;10.13;;;8.30;;
11539;SDS011;5826;54.756;9.192;2022-11-25T11:40:45;8.23;;;7.13;;
11539;SDS011;5826;54.756;9.192;2022-11-25T11:43:22;8.17;;;6.70;;
11539;SDS011;5826;54.756;9.192;2022-11-25T11:45:53;8.27;;;6.50;;
11539;SDS011;5826;54.756;9.192;2022-11-25T11:57:24;5.93;;;4.93;;
11539;SDS011;5826;54.756;9.192;2022-11-25T11:59:54;9.07;;;6.10;;
11539;SDS011;5826;54.756;9.192;2022-11-25T12:03:03;6.13;;;4.70;;
11539;SDS011;5826;54.756;9.192;2022-11-25T12:05:18;5.60;;;4.53;;
11539;SDS011;5826;54.756;9.192;2022-11-25T12:10:53;5.53;;;4.97;;
11539;SDS011;5826;54.756;9.192;2022-11-25T12:16:32;5.77;;;5.17;;
11539;SDS011;5826;54.756;9.192;2022-11-25T12:19:13;7.87;;;5.83;;
11539;SDS011;5826;54.756;9.192;2022-11-25T12:22:16;7.50;;;5.10;;
11539;SDS011;5826;54.756;9.192;2022-11-25T12:25:06;7.63;;;6.37;;
11539;SDS011;5826;54.756;9.192;2022-11-25T12:30:20;7.50;;;5.83;;
11539;SDS011;5826;54.756;9.192;2022-11-25T12:41:00;5.93;;;4.73;;
11539;SDS011;5826;54.756;9.192;2022-11-25T12:46:32;6.20;;;5.13;;
11539;SDS011;5826;54.756;9.192;2022-11-25T12:49:13;6.50;;;5.00;;
11539;SDS011;5826;54.756;9.192;2022-11-25T12:51:54;9.77;;;7.23;;
11539;SDS011;5826;54.756;9.192;2022-11-25T13:02:29;6.07;;;5.13;;
11539;SDS011;5826;54.756;9.192;2022-11-25T13:13:06;9.67;;;5.30;;
11539;SDS011;5826;54.756;9.192;2022-11-25T13:15:40;7.70;;;6.17;;
11539;SDS011;5826;54.756;9.192;2022-11-25T13:18:12;7.47;;;5.50;;
11539;SDS011;5826;54.756;9.192;2022-11-25T13:20:41;6.23;;;5.63;;
11539;SDS011;5826;54.756;9.192;2022-11-25T13:25:41;9.80;;;6.63;;
11539;SDS011;5826;54.756;9.192;2022-11-25T13:30:52;9.07;;;6.30;;
11539;SDS011;5826;54.756;9.192;2022-11-25T13:35:52;7.07;;;5.90;;
11539;SDS011;5826;54.756;9.192;2022-11-25T13:41:02;7.67;;;6.23;;
11539;SDS011;5826;54.756;9.192;2022-11-25T13:43:34;9.13;;;5.80;;
11539;SDS011;5826;54.756;9.192;2022-11-25T13:45:59;7.03;;;6.10;;
11539;SDS011;5826;54.756;9.192;2022-11-25T13:48:27;7.00;;;5.63;;
11539;SDS011;5826;54.756;9.192;2022-11-25T13:53:40;8.80;;;6.20;;
11539;SDS011;5826;54.756;9.192;2022-11-25T13:56:28;9.37;;;5.70;;
11539;SDS011;5826;54.756;9.192;2022-11-25T13:59:46;8.13;;;5.70;;
11539;SDS011;5826;54.756;9.192;2022-11-25T14:02:28;10.50;;;6.83;;
11539;SDS011;5826;54.756;9.192;2022-11-25T14:05:10;10.17;;;6.47;;
11539;SDS011;5826;54.756;9.192;2022-11-25T14:07:45;8.33;;;5.80;;
11539;SDS011;5826;54.756;9.192;2022-11-25T14:10:59;8.80;;;6.17;;
11539;SDS011;5826;54.756;9.192;2022-11-25T14:19:13;9.70;;;6.50;;
11539;SDS011;5826;54.756;9.192;2022-11-25T14:24:45;12.90;;;7.30;;
11539;SDS011;5826;54.756;9.192;2022-11-25T14:27:35;8.63;;;6.10;;
11539;SDS011;5826;54.756;9.192;2022-11-25T14:30:03;8.60;;;5.43;;
11539;SDS011;5826;54.756;9.192;2022-11-25T14:32:35;8.60;;;6.43;;
11539;SDS011;5826;54.756;9.192;2022-11-25T14:35:09;10.30;;;6.40;;
11539;SDS011;5826;54.756;9.192;2022-11-25T14:37:46;10.63;;;7.97;;
11539;SDS011;5826;54.756;9.192;2022-11-25T14:40:29;8.03;;;6.83;;
11539;SDS011;5826;54.756;9.192;2022-11-25T14:43:03;9.30;;;6.90;;
11539;SDS011;5826;54.756;9.192;2022-11-25T14:45:32;8.17;;;6.60;;
11539;SDS011;5826;54.756;9.192;2022-11-25T14:48:14;7.67;;;6.30;;
11539;SDS011;5826;54.756;9.192;2022-11-25T14:53:20;9.90;;;6.53;;
11539;SDS011;5826;54.756;9.192;2022-11-25T14:55:47;7.67;;;6.07;;
11539;SDS011;5826;54.756;9.192;2022-11-25T14:58:13;9.10;;;6.80;;
11539;SDS011;5826;54.756;9.192;2022-11-25T15:00:49;11.67;;;6.53;;
11539;SDS011;5826;54.756;9.192;2022-11-25T15:03:27;8.53;;;5.87;;
11539;SDS011;5826;54.756;9.192;2022-11-25T15:05:54;8.03;;;6.27;;
11539;SDS011;5826;54.756;9.192;2022-11-25T15:08:24;8.67;;;6.40;;
11539;SDS011;5826;54.756;9.192;2022-11-25T15:10:54;10.00;;;7.20;;
11539;SDS011;5826;54.756;9.192;2022-11-25T15:13:23;12.20;;;8.20;;
11539;SDS011;5826;54.756;9.192;2022-11-25T15:15:51;9.47;;;7.87;;
11539;SDS011;5826;54.756;9.192;2022-11-25T15:18:20;10.27;;;7.20;;
11539;SDS011;5826;54.756;9.192;2022-11-25T15:20:52;13.30;;;8.67;;
11539;SDS011;5826;54.756;9.192;2022-11-25T15:23:26;9.60;;;7.33;;
11539;SDS011;5826;54.756;9.192;2022-11-25T15:25:56;9.80;;;8.33;;
11539;SDS011;5826;54.756;9.192;2022-11-25T15:28:22;10.30;;;8.47;;
11539;SDS011;5826;54.756;9.192;2022-11-25T15:30:57;12.13;;;8.17;;
11539;SDS011;5826;54.756;9.192;2022-11-25T15:33:24;12.03;;;8.13;;
11539;SDS011;5826;54.756;9.192;2022-11-25T15:35:51;10.03;;;7.90;;
11539;SDS011;5826;54.756;9.192;2022-11-25T15:38:18;10.77;;;7.80;;
11539;SDS011;5826;54.756;9.192;2022-11-25T15:40:59;8.83;;;7.57;;
11539;SDS011;5826;54.756;9.192;2022-11-25T15:43:25;9.53;;;7.80;;
11539;SDS011;5826;54.756;9.192;2022-11-25T15:45:58;9.73;;;7.10;;
11539;SDS011;5826;54.756;9.192;2022-11-25T15:48:33;10.60;;;9.50;;
11539;SDS011;5826;54.756;9.192;2022-11-25T15:51:06;9.60;;;7.90;;
11539;SDS011;5826;54.756;9.192;2022-11-25T15:53:56;10.00;;;8.00;;
11539;SDS011;5826;54.756;9.192;2022-11-25T15:56:28;9.40;;;7.50;;
11539;SDS011;5826;54.756;9.192;2022-11-25T15:58:56;9.57;;;7.60;;
11539;SDS011;5826;54.756;9.192;2022-11-25T16:01:22;8.77;;;7.00;;
11539;SDS011;5826;54.756;9.192;2022-11-25T16:03:49;7.60;;;6.83;;
11539;SDS011;5826;54.756;9.192;2022-11-25T16:08:58;10.20;;;7.73;;
11539;SDS011;5826;54.756;9.192;2022-11-25T16:11:25;10.53;;;7.50;;
11539;SDS011;5826;54.756;9.192;2022-11-25T16:14:15;8.50;;;6.70;;
11539;SDS011;5826;54.756;9.192;2022-11-25T16:16:54;8.03;;;6.43;;
11539;SDS011;5826;54.756;9.192;2022-11-25T16:19:37;7.90;;;7.07;;
11539;SDS011;5826;54.756;9.192;2022-11-25T16:22:05;8.77;;;6.60;;
11539;SDS011;5826;54.756;9.192;2022-11-25T16:24:38;8.17;;;6.67;;
11539;SDS011;5826;54.756;9.192;2022-11-25T16:27:20;9.90;;;7.47;;
11539;SDS011;5826;54.756;9.192;2022-11-25T16:29:49;9.10;;;7.60;;
11539;SDS011;5826;54.756;9.192;2022-11-25T16:32:18;8.70;;;7.63;;
11539;SDS011;5826;54.756;9.192;2022-11-25T16:34:48;11.30;;;8.13;;
11539;SDS011;5826;54.756;9.192;2022-11-25T16:37:14;8.60;;;7.70;;
11539;SDS011;5826;54.756;9.192;2022-11-25T16:39:40;9.40;;;8.13;;
11539;SDS011;5826;54.756;9.192;2022-11-25T16:42:06;8.80;;;7.73;;
11539;SDS011;5826;54.756;9.192;2022-11-25T16:44:36;12.13;;;9.80;;
11539;SDS011;5826;54.756;9.192;2022-11-25T16:47:02;10.03;;;8.87;;
11539;SDS011;5826;54.756;9.192;2022-11-25T16:49:28;8.87;;;7.97;;